Time;durP1;ratioP1;P1;durP2;ratioP2;P2;SDS_P1;SDS_P2;PMS_P1;PMS_P2;Temp;Humidity;BMP_temperature;BMP_pressure;BME280_temperature;BME280_humidity;BME280_pressure;Samples;Min_cycle;Max_cycle;Signal;HPM_P1;HPM_P2
2023/07/28 00:02:03;;;;;;;29.38;12.35;;;;;;;15.98;100.00;100432.44;5063809;28;20467;-65
2023/07/28 00:04:29;;;;;;;28.17;12.20;;;;;;;15.96;100.00;100426.28;5067064;28;20057;-65
2023/07/28 00:06:54;;;;;;;28.77;11.93;;;;;;;15.97;100.00;100425.34;5064345;28;20078;-65
2023/07/28 00:09:20;;;;;;;28.83;11.68;;;;;;;15.96;100.00;100420.97;5065662;28;20464;-65
2023/07/28 00:11:45;;;;;;;29.80;12.05;;;;;;;15.97;100.00;100419.16;5065960;28;20099;-65
2023/07/28 00:14:10;;;;;;;29.30;12.48;;;;;;;15.97;100.00;100430.69;5064247;28;20112;-65
2023/07/28 00:16:36;;;;;;;28.35;11.65;;;;;;;15.97;100.00;100425.34;5067192;28;20115;-67
2023/07/28 00:19:01;;;;;;;28.48;12.38;;;;;;;15.97;100.00;100419.16;5063334;28;20069;-65
2023/07/28 00:21:26;;;;;;;28.38;12.52;;;;;;;15.98;100.00;100428.91;5066375;28;20036;-65
2023/07/28 00:23:52;;;;;;;28.70;12.10;;;;;;;15.98;100.00;100427.13;5064035;28;20044;-65
2023/07/28 00:26:17;;;;;;;30.25;12.27;;;;;;;15.98;100.00;100427.13;5064997;28;20460;-65
2023/07/28 00:28:42;;;;;;;28.80;12.20;;;;;;;15.99;100.00;100420.00;5065639;28;20032;-65
2023/07/28 00:31:08;;;;;;;29.33;11.93;;;;;;;15.98;100.00;100421.78;5063796;28;20043;-65
2023/07/28 00:33:33;;;;;;;29.35;12.85;;;;;;;16.00;100.00;100425.31;5066920;28;20499;-66
2023/07/28 00:35:58;;;;;;;28.95;12.70;;;;;;;15.99;100.00;100422.69;5063300;28;20454;-65
2023/07/28 00:38:24;;;;;;;30.70;13.07;;;;;;;15.99;100.00;100418.22;5065936;28;20372;-65
2023/07/28 00:40:49;;;;;;;29.98;12.73;;;;;;;15.99;100.00;100423.53;5064541;28;20028;-65
2023/07/28 00:43:14;;;;;;;31.25;13.20;;;;;;;15.99;100.00;100418.22;5064234;28;20476;-65
2023/07/28 00:45:40;;;;;;;31.48;13.32;;;;;;;16.01;100.00;100420.84;5065874;28;20039;-85
2023/07/28 00:48:12;;;;;;;31.70;13.32;;;;;;;15.97;100.00;100409.34;5062791;28;20064;-65
2023/07/28 00:50:38;;;;;;;31.00;13.20;;;;;;;15.97;100.00;100409.34;5066246;28;20032;-65
2023/07/28 00:53:04;;;;;;;31.15;13.10;;;;;;;15.98;100.00;100403.13;5063090;28;20069;-65
2023/07/28 00:55:29;;;;;;;31.45;13.43;;;;;;;15.98;100.00;100399.59;5065959;28;20119;-66
2023/07/28 00:57:55;;;;;;;31.15;12.98;;;;;;;15.97;100.00;100403.16;5063400;28;20078;-72
2023/07/28 01:00:20;;;;;;;32.47;13.98;;;;;;;15.97;100.00;100408.50;5064826;28;20068;-65
2023/07/28 01:02:45;;;;;;;31.70;13.80;;;;;;;15.97;100.00;100405.81;5064584;28;20029;-66
2023/07/28 01:05:11;;;;;;;31.23;12.98;;;;;;;15.97;100.00;100414.69;5063449;28;20136;-70
2023/07/28 01:07:44;;;;;;;31.38;13.20;;;;;;;15.98;100.00;100416.44;5065694;28;20024;-65
2023/07/28 01:10:14;;;;;;;33.03;13.10;;;;;;;15.99;100.00;100423.53;5062983;28;20029;-84
2023/07/28 01:12:40;;;;;;;32.00;13.13;;;;;;;15.99;100.00;100431.53;5065196;28;20122;-65
2023/07/28 01:15:06;;;;;;;31.67;13.18;;;;;;;16.00;100.00;100429.75;5062642;28;20146;-65
2023/07/28 01:17:31;;;;;;;32.20;13.38;;;;;;;16.01;100.00;100431.50;5058402;28;20029;-66
2023/07/28 01:19:58;;;;;;;32.45;13.27;;;;;;;16.00;100.00;100425.31;5065069;28;20047;-84
2023/07/28 01:22:32;;;;;;;32.53;13.27;;;;;;;16.00;100.00;100435.97;5063407;28;20032;-84
2023/07/28 01:25:03;;;;;;;33.60;13.60;;;;;;;16.02;100.00;100426.13;5065154;28;20025;-65
2023/07/28 01:27:29;;;;;;;33.05;12.90;;;;;;;16.02;100.00;100431.47;5062375;28;20025;-85
2023/07/28 01:29:54;;;;;;;32.70;13.45;;;;;;;16.01;100.00;100428.84;5064814;28;20031;-65
2023/07/28 01:32:20;;;;;;;32.00;13.45;;;;;;;16.01;100.00;100427.03;5063571;28;20526;-85
2023/07/28 01:34:45;;;;;;;33.22;13.82;;;;;;;16.02;100.00;100431.47;5063051;28;20062;-65
2023/07/28 01:37:10;;;;;;;34.05;13.50;;;;;;;16.02;100.00;100426.13;5064294;28;20029;-67
2023/07/28 01:39:36;;;;;;;35.47;13.77;;;;;;;16.03;100.00;100427.88;5061922;28;20039;-65
2023/07/28 01:42:01;;;;;;;33.90;13.35;;;;;;;16.04;100.00;100431.41;5065375;28;20502;-65
2023/07/28 01:44:26;;;;;;;34.05;13.38;;;;;;;16.04;100.00;100428.75;5062676;28;20025;-74
2023/07/28 01:46:52;;;;;;;33.33;14.15;;;;;;;16.04;100.00;100439.41;5064198;28;20036;-65
2023/07/28 01:49:17;;;;;;;35.00;14.10;;;;;;;16.06;100.00;100450.03;5063741;28;20029;-65
2023/07/28 01:51:42;;;;;;;34.78;13.23;;;;;;;16.04;100.00;100434.94;5062812;28;20025;-79
2023/07/28 01:54:08;;;;;;;34.53;13.15;;;;;;;16.04;100.00;100440.28;5065055;28;20082;-65
2023/07/28 01:56:33;;;;;;;36.70;14.30;;;;;;;16.04;100.00;100437.63;5060288;28;20029;-65
2023/07/28 01:58:58;;;;;;;36.15;14.48;;;;;;;16.05;100.00;100438.50;5064720;28;20498;-84
2023/07/28 02:01:24;;;;;;;36.58;14.40;;;;;;;16.05;100.00;100427.84;5062448;28;20491;-74
2023/07/28 02:03:49;;;;;;;38.35;14.80;;;;;;;16.04;100.00;100434.09;5063278;28;20392;-74
2023/07/28 02:06:14;;;;;;;37.58;14.27;;;;;;;16.04;100.00;100442.09;5063740;28;20028;-66
2023/07/28 02:08:40;;;;;;;36.00;14.75;;;;;;;16.02;100.00;100434.13;5061881;28;20033;-82
2023/07/28 02:11:05;;;;;;;36.75;14.90;;;;;;;16.01;100.00;100437.69;5064931;28;20103;-65
2023/07/28 02:13:30;;;;;;;37.50;14.88;;;;;;;16.00;100.00;100433.31;5061339;28;20029;-76
2023/07/28 02:15:56;;;;;;;39.25;15.50;;;;;;;16.01;100.00;100421.69;5063923;28;20115;-65
2023/07/28 02:18:21;;;;;;;36.08;15.25;;;;;;;16.01;100.00;100429.69;5062960;28;20037;-65
2023/07/28 02:20:50;;;;;;;40.70;15.90;;;;;;;16.00;100.00;100430.63;5062557;28;20108;-65
2023/07/28 02:23:15;;;;;;;39.10;15.70;;;;;;;16.02;100.00;100430.59;5063264;28;20110;-65
2023/07/28 02:25:40;;;;;;;39.22;17.00;;;;;;;16.02;100.00;100431.47;5061996;28;20492;-65
2023/07/28 02:28:08;;;;;;;43.42;16.80;;;;;;;16.02;100.00;100436.78;5064460;28;20029;-65
2023/07/28 02:30:33;;;;;;;41.80;17.08;;;;;;;16.02;100.00;100438.59;5057252;28;20086;-65
2023/07/28 02:32:59;;;;;;;44.05;17.13;;;;;;;16.02;100.00;100439.47;5064228;28;20449;-64
2023/07/28 02:35:24;;;;;;;44.25;17.90;;;;;;;16.03;100.00;100438.56;5061849;28;20023;-65
2023/07/28 02:37:49;;;;;;;43.75;17.33;;;;;;;16.02;100.00;100439.47;5062711;28;20233;-65
2023/07/28 02:40:15;;;;;;;43.22;17.52;;;;;;;16.03;100.00;100438.56;5063470;28;20072;-65
2023/07/28 02:42:40;;;;;;;45.97;18.15;;;;;;;16.03;100.00;100435.88;5061511;28;20021;-65
2023/07/28 02:45:06;;;;;;;44.40;18.35;;;;;;;16.03;100.00;100427.88;5064555;28;20016;-65
2023/07/28 02:47:31;;;;;;;46.10;18.75;;;;;;;16.06;100.00;100442.03;5055215;28;20043;-65
2023/07/28 02:49:57;;;;;;;47.95;19.13;;;;;;;16.02;100.00;100442.13;5063695;28;20031;-65
2023/07/28 02:52:22;;;;;;;46.55;18.67;;;;;;;16.04;100.00;100442.94;5062145;28;20051;-66
2023/07/28 02:54:50;;;;;;;47.05;19.38;;;;;;;16.05;100.00;100443.84;5062321;28;20028;-65
2023/07/28 02:57:15;;;;;;;46.95;19.85;;;;;;;16.07;100.00;100451.81;5063017;28;20032;-65
2023/07/28 02:59:40;;;;;;;49.83;20.27;;;;;;;16.07;100.00;100451.81;5061353;28;20065;-65
2023/07/28 03:02:05;;;;;;;47.88;20.33;;;;;;;16.08;100.00;100458.91;5064247;28;20032;-65
2023/07/28 03:04:31;;;;;;;50.08;20.77;;;;;;;16.06;100.00;100455.38;5060561;28;20094;-65
2023/07/28 03:06:56;;;;;;;51.40;21.38;;;;;;;16.06;100.00;100450.03;5062352;28;20047;-65
2023/07/28 03:09:22;;;;;;;51.60;21.27;;;;;;;16.04;100.00;100450.94;5061992;28;20051;-68
2023/07/28 03:11:47;;;;;;;52.53;21.48;;;;;;;16.04;100.00;100458.94;5062127;28;20025;-65
2023/07/28 03:14:12;;;;;;;52.08;21.80;;;;;;;16.04;100.00;100453.63;5063466;28;20541;-65
2023/07/28 03:16:38;;;;;;;50.95;21.92;;;;;;;16.04;100.00;100450.94;5060755;28;20107;-65
2023/07/28 03:19:03;;;;;;;52.53;22.50;;;;;;;16.02;100.00;100447.47;5064230;28;20374;-65
2023/07/28 03:21:31;;;;;;;52.20;22.50;;;;;;;16.04;100.00;100458.06;5061372;28;20039;-65
2023/07/28 03:23:56;;;;;;;53.47;22.98;;;;;;;16.04;100.00;100456.28;5063167;28;20033;-65
2023/07/28 03:26:21;;;;;;;51.60;22.60;;;;;;;16.06;100.00;100456.25;5062140;28;20436;-65
2023/07/28 03:28:47;;;;;;;53.25;23.40;;;;;;;16.04;100.00;100458.94;5061860;28;20072;-65
2023/07/28 03:31:12;;;;;;;53.60;22.65;;;;;;;16.07;100.00;100467.81;5063109;28;20036;-65
2023/07/28 03:33:37;;;;;;;51.42;21.70;;;;;;;16.06;100.00;100472.22;5060730;28;20041;-66
2023/07/28 03:36:03;;;;;;;54.67;22.75;;;;;;;16.08;100.00;100467.75;5063833;28;20020;-65
2023/07/28 03:38:28;;;;;;;55.67;22.35;;;;;;;16.10;100.00;100465.06;5060673;28;20472;-65
2023/07/28 03:40:54;;;;;;;53.55;23.02;;;;;;;16.08;100.00;100475.75;5063069;28;20094;-82
2023/07/28 03:43:20;;;;;;;55.28;23.60;;;;;;;16.09;100.00;100471.28;5062026;28;20025;-66
2023/07/28 03:45:45;;;;;;;54.20;22.88;;;;;;;16.09;100.00;100485.53;5061455;28;20081;-65
2023/07/28 03:48:11;;;;;;;56.85;23.58;;;;;;;16.10;100.00;100489.91;5063308;28;20497;-66
2023/07/28 03:50:36;;;;;;;53.22;23.70;;;;;;;16.10;100.00;100489.06;5060268;28;20039;-65
2023/07/28 03:53:01;;;;;;;57.30;24.55;;;;;;;16.10;100.00;100489.06;5063636;28;20541;-65
2023/07/28 03:55:27;;;;;;;55.97;23.45;;;;;;;16.07;100.00;100498.00;5061066;28;20033;-65
2023/07/28 03:57:52;;;;;;;52.53;23.05;;;;;;;16.07;100.00;100494.47;5062299;28;20484;-65
2023/07/28 04:00:18;;;;;;;56.47;23.98;;;;;;;16.07;100.00;100491.78;5065398;28;20383;-65
2023/07/28 04:02:43;;;;;;;57.63;24.20;;;;;;;16.08;100.00;100485.56;5064719;28;20113;-65
2023/07/28 04:05:08;;;;;;;56.55;24.35;;;;;;;16.06;100.00;100488.22;5066854;28;20068;-64
2023/07/28 04:07:34;;;;;;;55.70;24.02;;;;;;;16.07;100.00;100494.47;5063829;28;20094;-65
2023/07/28 04:09:59;;;;;;;57.08;24.38;;;;;;;16.08;100.00;100496.22;5066605;28;20380;-65
2023/07/28 04:12:24;;;;;;;63.42;25.70;;;;;;;16.07;100.00;100490.00;5064703;28;20424;-65
2023/07/28 04:14:50;;;;;;;53.70;24.58;;;;;;;16.07;100.00;100497.13;5065417;28;20033;-65
2023/07/28 04:17:15;;;;;;;53.97;23.65;;;;;;;16.07;100.00;100489.13;5065912;28;20375;-64
2023/07/28 04:19:40;;;;;;;56.25;24.65;;;;;;;16.09;100.00;100492.63;5063760;28;20044;-67
2023/07/28 04:22:06;;;;;;;53.72;24.48;;;;;;;16.03;100.00;100483.88;5066996;28;20024;-65
2023/07/28 04:24:31;;;;;;;56.47;24.40;;;;;;;16.04;100.00;100484.75;5063479;28;20029;-66
2023/07/28 04:26:57;;;;;;;53.80;23.52;;;;;;;16.04;100.00;100488.28;5065779;28;20051;-65
2023/07/28 04:29:23;;;;;;;53.63;24.20;;;;;;;16.01;100.00;100491.00;5064734;28;20112;-66
2023/07/28 04:31:48;;;;;;;55.17;23.80;;;;;;;16.02;100.00;100484.78;5064729;28;20116;-65
2023/07/28 04:34:13;;;;;;;53.40;24.08;;;;;;;16.02;100.00;100490.09;5065601;28;20025;-65
2023/07/28 04:36:39;;;;;;;52.00;23.25;;;;;;;16.05;100.00;100494.50;5063516;28;20040;-66
2023/07/28 04:39:04;;;;;;;49.95;22.73;;;;;;;16.04;100.00;100490.06;5066369;28;20036;-72
2023/07/28 04:41:29;;;;;;;49.90;22.45;;;;;;;16.02;100.00;100487.44;5063676;28;20112;-66
2023/07/28 04:43:56;;;;;;;48.67;22.20;;;;;;;16.01;100.00;100490.16;5065625;28;20361;-69
2023/07/28 04:46:21;;;;;;;49.13;22.65;;;;;;;16.02;100.00;100486.56;5064418;28;20107;-65
2023/07/28 04:48:46;;;;;;;46.92;21.15;;;;;;;16.02;100.00;100486.56;5064527;28;20104;-65
2023/07/28 04:51:12;;;;;;;47.75;22.60;;;;;;;16.01;100.00;100482.16;5065644;28;20067;-65
2023/07/28 04:53:37;;;;;;;50.00;22.17;;;;;;;16.04;100.00;100482.94;5062770;28;20040;-65
2023/07/28 04:56:03;;;;;;;53.35;23.63;;;;;;;16.06;100.00;100487.38;5058120;28;20033;-65
2023/07/28 04:58:29;;;;;;;49.00;22.55;;;;;;;16.06;100.00;100493.56;5063125;28;20025;-65
2023/07/28 05:00:54;;;;;;;50.50;22.50;;;;;;;16.10;100.00;100494.38;5064795;28;20044;-67
2023/07/28 05:03:19;;;;;;;50.70;23.27;;;;;;;16.09;100.00;100497.94;5064665;28;20247;-65
2023/07/28 05:05:46;;;;;;;53.03;23.90;;;;;;;16.13;100.00;100488.97;5063311;28;20562;-64
2023/07/28 05:08:11;;;;;;;52.47;23.40;;;;;;;16.14;100.00;100499.59;5065594;28;20029;-65
2023/07/28 05:10:37;;;;;;;52.30;23.98;;;;;;;16.16;100.00;100499.56;5062643;28;20486;-65
2023/07/28 05:13:05;;;;;;;52.35;23.75;;;;;;;16.14;100.00;100504.06;5065763;28;20028;-65
2023/07/28 05:15:30;;;;;;;53.50;23.48;;;;;;;16.16;100.00;100511.13;5062818;28;20476;-65
2023/07/28 05:17:56;;;;;;;54.83;23.63;;;;;;;16.18;100.00;100508.41;5065040;28;20071;-81
2023/07/28 05:20:21;;;;;;;52.38;23.02;;;;;;;16.19;100.00;100510.16;5063824;28;20071;-80
2023/07/28 05:22:47;;;;;;;50.60;22.52;;;;;;;16.20;100.00;100512.78;5060750;28;20447;-76
2023/07/28 05:25:12;;;;;;;51.60;23.38;;;;;;;16.20;100.00;100522.56;5062872;28;20033;-81
2023/07/28 05:27:38;;;;;;;52.10;23.25;;;;;;;16.22;100.00;100526.06;5064544;28;20107;-78
2023/07/28 05:30:03;;;;;;;50.58;23.40;;;;;;;16.24;100.00;100521.59;5062587;28;20025;-76
2023/07/28 05:32:29;;;;;;;53.50;24.35;;;;;;;16.26;100.00;100522.41;5065382;28;20112;-78
2023/07/28 05:34:54;;;;;;;49.92;23.17;;;;;;;16.29;100.00;100526.81;5061948;28;20065;-77
2023/07/28 05:37:19;;;;;;;53.25;24.23;;;;;;;16.33;100.00;100528.50;5064372;28;20044;-77
2023/07/28 05:39:45;;;;;;;52.35;24.75;;;;;;;16.34;100.00;100535.59;5063395;28;20071;-64
2023/07/28 05:42:10;;;;;;;51.75;24.15;;;;;;;16.35;100.00;100534.66;5062180;28;20044;-66
2023/07/28 05:44:35;;;;;;;53.60;25.70;;;;;;;16.38;100.00;100538.13;5063952;28;20029;-92
2023/07/28 05:47:01;;;;;;;56.88;27.13;;;;;;;16.40;100.00;100543.44;5063653;28;20567;-81
2023/07/28 05:49:26;;;;;;;60.47;28.48;;;;;;;16.44;100.00;100539.78;5062196;28;20029;-83
2023/07/28 05:51:51;;;;;;;59.90;29.08;;;;;;;16.46;100.00;100547.75;5065113;28;20082;-79
2023/07/28 05:54:17;;;;;;;62.72;29.05;;;;;;;16.48;100.00;100543.22;5061517;28;20430;-78
2023/07/28 05:56:43;;;;;;;66.90;31.13;;;;;;;16.54;100.00;100551.97;5064293;28;20429;-76
2023/07/28 05:59:08;;;;;;;64.32;30.50;;;;;;;16.56;100.00;100552.81;5062516;28;20123;-69
2023/07/28 06:01:34;;;;;;;69.13;32.10;;;;;;;16.61;100.00;100550.00;5063062;28;20083;-81
2023/07/28 06:03:59;;;;;;;76.78;33.78;;;;;;;16.67;100.00;100555.22;5064780;28;20036;-73
2023/07/28 06:06:27;;;;;;;78.43;34.83;;;;;;;16.73;100.00;100549.72;5064258;28;20041;-74
2023/07/28 06:08:53;;;;;;;79.85;34.95;;;;;;;16.68;100.00;100548.94;5061434;28;20052;-76
2023/07/28 06:11:21;;;;;;;81.47;35.72;;;;;;;16.66;100.00;100549.88;5064699;28;20463;-66
2023/07/28 06:13:47;;;;;;;81.35;36.40;;;;;;;16.65;100.00;100554.34;5062426;28;20418;-70
2023/07/28 06:16:13;;;;;;;81.40;35.13;;;;;;;16.68;100.00;100556.09;5061148;28;20021;-67
2023/07/28 06:18:38;;;;;;;83.35;34.90;;;;;;;16.73;100.00;100552.38;5064674;28;20116;-71
2023/07/28 06:21:04;;;;;;;79.25;34.65;;;;;;;16.73;100.00;100546.16;5061207;28;20535;-76
2023/07/28 06:23:29;;;;;;;78.10;34.60;;;;;;;16.72;100.00;100547.94;5062100;28;20507;-71
2023/07/28 06:25:55;;;;;;;77.53;34.53;;;;;;;16.76;100.00;100554.09;5062714;28;20116;-78
2023/07/28 06:28:21;;;;;;;71.13;32.03;;;;;;;16.82;100.00;100551.28;5062410;28;20033;-76
2023/07/28 06:30:46;;;;;;;72.07;32.53;;;;;;;16.81;100.00;100556.66;5063801;28;20060;-68
2023/07/28 06:33:12;;;;;;;69.28;31.38;;;;;;;16.85;100.00;100558.31;5059639;28;20060;-71
2023/07/28 06:35:37;;;;;;;68.30;31.00;;;;;;;16.94;100.00;100558.09;5056797;28;20028;-72
2023/07/28 06:38:03;;;;;;;57.88;27.90;;;;;;;16.92;100.00;100567.97;5063482;28;20483;-74
2023/07/28 06:40:28;;;;;;;55.92;27.33;;;;;;;16.91;100.00;100568.88;5062181;28;20538;-73
2023/07/28 06:42:53;;;;;;;54.38;27.38;;;;;;;16.95;100.00;100570.53;5062357;28;20029;-79
2023/07/28 06:45:19;;;;;;;51.70;24.98;;;;;;;16.95;100.00;100569.66;5062644;28;20024;-78
2023/07/28 06:47:45;;;;;;;50.30;24.05;;;;;;;16.94;100.00;100573.25;5062654;28;20033;-77
2023/07/28 06:50:11;;;;;;;49.33;23.80;;;;;;;17.00;100.00;100578.44;5063040;28;20021;-65
2023/07/28 06:52:37;;;;;;;51.47;24.15;;;;;;;17.15;100.00;100582.47;5055911;28;20031;-65
2023/07/28 06:55:03;;;;;;;49.85;22.85;;;;;;;17.10;100.00;100573.72;5061614;28;20115;-75
2023/07/28 06:57:29;;;;;;;47.45;23.15;;;;;;;17.01;100.00;100573.03;5062717;28;20104;-70
2023/07/28 06:59:54;;;;;;;47.28;23.25;;;;;;;17.11;100.00;100580.81;5063017;28;20163;-92
2023/07/28 07:02:19;;;;;;;45.42;22.73;;;;;;;17.10;100.00;100584.41;5060385;28;20033;-74
2023/07/28 07:04:45;;;;;;;43.13;21.67;;;;;;;17.07;100.00;100582.69;5063439;28;20099;-73
2023/07/28 07:07:10;;;;;;;42.30;22.10;;;;;;;17.11;100.00;100591.47;5060801;28;20116;-64
2023/07/28 07:09:36;;;;;;;41.28;20.70;;;;;;;17.07;100.00;100586.22;5063475;28;20052;-64
2023/07/28 07:12:01;;;;;;;42.60;21.70;;;;;;;17.10;100.00;100589.75;5061483;28;20526;-64
2023/07/28 07:14:27;;;;;;;41.40;20.88;;;;;;;17.04;100.00;100590.78;5062541;28;20033;-63
2023/07/28 07:16:52;;;;;;;42.03;21.30;;;;;;;17.13;100.00;100592.34;5062009;28;20021;-64
2023/07/28 07:19:17;;;;;;;37.78;19.20;;;;;;;17.14;100.00;100596.75;5062005;28;20036;-66
2023/07/28 07:21:44;;;;;;;37.80;19.85;;;;;;;17.19;100.00;100600.19;5061564;28;20596;-65
2023/07/28 07:24:10;;;;;;;36.38;19.10;;;;;;;17.18;100.00;100599.31;5063237;28;20029;-79
2023/07/28 07:26:35;;;;;;;37.00;18.63;;;;;;;17.30;100.00;100592.75;5060398;28;20040;-66
2023/07/28 07:29:01;;;;;;;36.00;17.98;;;;;;;17.35;100.00;100592.63;5063800;28;20040;-65
2023/07/28 07:31:26;;;;;;;35.30;17.92;;;;;;;17.40;100.00;100599.59;5061084;28;20035;-68
2023/07/28 07:33:52;;;;;;;32.33;16.48;;;;;;;17.36;100.00;100597.91;5064310;28;20021;-67
2023/07/28 07:36:18;;;;;;;31.17;16.23;;;;;;;17.36;100.00;100602.41;5066185;28;20047;-68
2023/07/28 07:38:51;;;;;;;29.23;15.07;;;;;;;17.38;100.00;100612.09;5065382;28;20444;-79
2023/07/28 07:41:19;;;;;;;;;;;;;;;17.41;100.00;100611.13;5066147;28;20103;-67
2023/07/28 07:43:45;;;;;;;28.80;15.25;;;;;;;17.30;100.00;100606.09;5065220;28;19916;-72
2023/07/28 07:46:11;;;;;;;30.75;15.38;;;;;;;17.41;100.00;100611.13;5066270;28;20070;-65
2023/07/28 07:48:36;;;;;;;30.15;15.55;;;;;;;17.50;100.00;100612.69;5064116;28;20033;-67
2023/07/28 07:51:01;;;;;;;29.85;14.75;;;;;;;17.50;100.00;100610.00;5067529;28;20101;-81
2023/07/28 07:53:27;;;;;;;28.33;14.52;;;;;;;17.47;100.00;100615.44;5067047;28;20032;-81
2023/07/28 07:55:52;;;;;;;26.77;13.50;;;;;;;17.47;100.00;100612.78;5063830;28;20108;-65
2023/07/28 07:58:17;;;;;;;26.95;13.75;;;;;;;17.53;100.00;100609.91;5066432;28;20108;-65
2023/07/28 08:00:44;;;;;;;26.15;13.77;;;;;;;17.49;100.00;100621.59;5065197;28;20032;-64
2023/07/28 08:03:10;;;;;;;28.35;14.82;;;;;;;17.54;100.00;100617.03;5065255;28;20075;-64
2023/07/28 08:05:35;;;;;;;27.08;14.00;;;;;;;17.62;100.00;100617.69;5065933;28;20431;-79
2023/07/28 08:08:01;;;;;;;26.48;13.98;;;;;;;17.66;100.00;100619.34;5063843;28;20033;-64
2023/07/28 08:10:26;;;;;;;26.90;14.00;;;;;;;17.68;100.00;100613.94;5066164;28;20024;-64
2023/07/28 08:12:52;;;;;;;25.52;13.43;;;;;;;17.81;100.00;100614.47;5054735;28;20167;-64
2023/07/28 08:15:17;;;;;;;24.65;12.68;;;;;;;17.81;100.00;100618.03;5067203;28;20047;-64
2023/07/28 08:17:42;;;;;;;27.05;13.27;;;;;;;17.75;100.00;100616.41;5063813;28;20475;-64
2023/07/28 08:20:08;;;;;;;24.70;13.45;;;;;;;17.78;100.00;100618.13;5065445;28;20159;-68
2023/07/28 08:22:33;;;;;;;25.30;14.05;;;;;;;17.81;100.00;100619.81;5064853;28;20039;-65
2023/07/28 08:24:59;;;;;;;25.58;14.45;;;;;;;17.79;100.00;100622.53;5064716;28;20053;-64
2023/07/28 08:27:24;;;;;;;23.90;13.60;;;;;;;17.74;100.00;100622.69;5063633;28;20029;-79
2023/07/28 08:29:50;;;;;;;24.40;12.50;;;;;;;17.74;100.00;100614.66;5066541;28;20407;-64
2023/07/28 08:32:15;;;;;;;23.75;12.30;;;;;;;17.76;100.00;100623.50;5063844;28;20037;-65
2023/07/28 08:34:41;;;;;;;24.70;13.18;;;;;;;17.90;100.00;100624.94;5065639;28;20357;-64
2023/07/28 08:37:06;;;;;;;22.50;12.30;;;;;;;18.06;100.00;100625.38;5064821;28;20418;-64
2023/07/28 08:39:32;;;;;;;22.20;11.70;;;;;;;18.18;100.00;100626.78;5064368;28;20033;-65
2023/07/28 08:42:02;;;;;;;21.65;11.50;;;;;;;18.31;100.00;100619.25;5065866;28;20028;-65
2023/07/28 08:44:34;;;;;;;20.88;10.80;;;;;;;18.45;100.00;100620.56;5060765;28;20024;-63
2023/07/28 08:47:01;;;;;;;20.65;9.90;;;;;;;18.61;100.00;100614.69;5063206;28;20039;-63
2023/07/28 08:49:26;;;;;;;20.85;9.85;;;;;;;18.87;100.00;100618.38;5066277;28;20545;-80
2023/07/28 08:51:52;;;;;;;19.30;8.90;;;;;;;19.01;100.00;100615.22;5063127;28;20025;-79
2023/07/28 08:54:17;;;;;;;20.15;9.07;;;;;;;19.05;100.00;100611.53;5065202;28;20021;-78
2023/07/28 08:56:43;;;;;;;20.05;8.82;;;;;;;19.08;100.00;100606.06;5064165;28;20106;-68
2023/07/28 08:59:09;;;;;;;19.17;8.65;;;;;;;19.09;100.00;100611.34;5064509;28;20036;-71
2023/07/28 09:01:41;;;;;;;19.35;8.48;;;;;;;19.30;100.00;100612.38;5064360;28;20016;-80
2023/07/28 09:04:10;;;;;;;18.98;8.65;;;;;;;19.31;100.00;100607.94;5064457;28;20110;-63
2023/07/28 09:06:36;;;;;;;18.55;8.20;;;;;;;19.43;100.00;100602.09;5064042;28;20372;-79
2023/07/28 09:09:01;;;;;;;18.42;8.18;;;;;;;19.60;100.00;100608.66;5063922;28;20060;-68
2023/07/28 09:11:27;;;;;;;18.88;8.30;;;;;;;19.74;100.00;100605.47;5062633;28;20043;-80
2023/07/28 09:13:54;;;;;;;20.05;8.35;;;;;;;20.06;100.00;100606.94;5058767;28;20444;-80
2023/07/28 09:16:21;;;;;;;18.30;7.88;;;;;;;20.33;100.00;100604.13;5064835;28;20029;-76
2023/07/28 09:18:47;;;;;;;19.25;8.38;;;;;;;20.51;100.00;100597.97;5062669;28;20060;-64
2023/07/28 09:21:17;;;;;;;19.65;8.70;;;;;;;20.72;100.00;100606.13;5059330;28;20498;-64
2023/07/28 09:23:43;;;;;;;19.73;8.70;;;;;;;20.79;100.00;100601.38;5054428;28;20024;-66
2023/07/28 09:26:09;;;;;;;19.23;8.80;;;;;;;20.73;100.00;100595.31;5064613;28;20427;-63
2023/07/28 09:28:39;;;;;;;18.83;8.45;;;;;;;20.70;100.00;100595.44;5056375;28;20033;-79
2023/07/28 09:31:05;;;;;;;18.77;8.57;;;;;;;20.88;100.00;100601.88;5065498;28;20534;-64
2023/07/28 09:33:32;;;;;;;19.58;8.80;;;;;;;21.30;100.00;100604.56;5056900;28;20043;-70
2023/07/28 09:36:10;;;;;;;19.80;9.10;;;;;;;21.72;100.00;100592.84;5056405;28;20040;-64
2023/07/28 09:38:38;;;;;;;19.42;8.80;;;;;;;21.93;100.00;100585.59;5063227;28;20025;-79
2023/07/28 09:41:07;;;;;;;18.45;8.10;;;;;;;22.38;100.00;100586.19;5063318;28;20052;-73
2023/07/28 09:43:32;;;;;;;17.73;8.27;;;;;;;22.35;100.00;100584.50;5062486;28;20365;-78
2023/07/28 09:45:58;;;;;;;18.60;8.00;;;;;;;22.23;100.00;100591.31;5062753;28;20031;-64
2023/07/28 09:48:24;;;;;;;17.75;7.63;;;;;;;22.55;100.00;100598.81;5062608;28;20055;-64
2023/07/28 09:50:50;;;;;;;16.48;6.93;;;;;;;22.39;100.00;100582.53;5064908;28;20111;-69
2023/07/28 09:53:16;;;;;;;17.05;6.70;;;;;;;22.39;100.00;100590.63;5061823;28;20033;-64
2023/07/28 09:55:43;;;;;;;17.05;6.70;;;;;;;22.40;100.00;100595.06;5064676;28;20039;-64
2023/07/28 09:58:12;;;;;;;15.73;6.57;;;;;;;22.51;100.00;100586.44;5061882;28;20435;-64
2023/07/28 10:00:38;;;;;;;15.50;6.13;;;;;;;22.41;100.00;100597.69;5064063;28;20032;-63
2023/07/28 10:03:04;;;;;;;15.45;6.18;;;;;;;22.19;100.00;100595.13;5062835;28;20027;-63
2023/07/28 10:05:30;;;;;;;15.52;6.38;;;;;;;21.85;100.00;100599.41;5062558;28;20045;-64
2023/07/28 10:07:56;;;;;;;14.93;6.20;;;;;;;21.76;100.00;100605.22;5063978;28;20098;-65
2023/07/28 10:10:22;;;;;;;15.45;6.47;;;;;;;21.56;100.00;100603.44;5062050;28;20037;-64
2023/07/28 10:12:52;;;;;;;16.02;6.60;;;;;;;21.30;100.00;100599.19;5063463;28;20036;-65
2023/07/28 10:15:19;;;;;;;16.60;6.40;;;;;;;21.19;100.00;100603.22;5057592;28;20029;-64
2023/07/28 10:17:54;;;;;;;16.98;6.90;;;;;;;21.21;100.00;100601.34;5057775;28;20028;-69
2023/07/28 10:20:29;;;;;;;17.13;6.90;;;;;;;21.43;100.00;100613.84;5057683;28;20071;-63
2023/07/28 10:23:11;;;;;;;16.83;6.50;;;;;;;21.89;100.00;100602.84;5063581;28;20499;-64
2023/07/28 10:25:38;;;;;;;16.98;6.97;;;;;;;22.38;100.00;100599.63;5063559;28;20033;-63
2023/07/28 10:28:05;;;;;;;17.52;6.95;;;;;;;22.88;100.00;100604.34;5062208;28;20025;-65
2023/07/28 10:30:52;;;;;;;14.57;5.97;;;;;;;23.17;100.00;100606.50;5062754;28;20032;-63
2023/07/28 10:33:32;;;;;;;14.88;5.72;;;;;;;23.58;100.00;100606.16;5057474;28;20083;-68
2023/07/28 10:35:59;;;;;;;13.68;5.45;;;;;;;23.37;100.00;100605.47;5060015;28;20021;-63
2023/07/28 10:38:32;;;;;;;12.93;5.10;;;;;;;23.65;100.00;100607.56;5063512;28;20060;-66
2023/07/28 10:41:09;;;;;;;13.07;5.00;;;;;;;24.12;100.00;100601.38;5061995;28;20306;-66
2023/07/28 10:43:35;;;;;;;10.80;4.40;;;;;;;24.06;100.00;100601.75;5062232;28;20092;-69
2023/07/28 10:46:00;;;;;;;9.15;3.70;;;;;;;23.97;100.00;100595.03;5059588;28;20535;-65
2023/07/28 10:48:26;;;;;;;8.10;3.50;;;;;;;23.91;100.00;100606.19;5063503;28;20479;-65
2023/07/28 10:50:51;;;;;;;7.75;3.38;;;;;;;23.72;100.00;100594.59;5062166;28;20040;-64
2023/07/28 10:53:17;;;;;;;6.35;3.35;;;;;;;23.57;100.00;100599.88;5062088;28;20416;-74
2023/07/28 10:55:42;;;;;;;8.68;3.58;;;;;;;23.85;100.00;100609.16;5063053;28;20154;-77
2023/07/28 10:58:08;;;;;;;10.05;3.78;;;;;;;24.43;100.00;100591.53;5061285;28;20029;-77
2023/07/28 11:00:33;;;;;;;10.55;3.70;;;;;;;24.49;100.00;100583.09;5063919;28;20032;-77